CST1007 CYWK-CYHZ
Flight info
| Callsign | CST1007 |
|---|---|
| Flight time | 1h 16m |
| Altitude | 38000 |
| Route | YWK DCT YWK133027 DCT ELINU |
| Aircraft | B38M/M-SDE1FGHILORVWXY/HB1 |
Departure
| Time | 2026-04-25 20:31 |
|---|---|
| Airport | Wabush Airport (CYWK) |
Arrival
| Time | 2026-04-25 21:48 |
|---|---|
| Airport | Halifax / Stanfield International Airport (CYHZ) |
| Time | Latitude | Longitude | Altitude | Speed | Heading |
|---|---|---|---|---|---|
| 2026-04-25 20:14 | 52.92685 | -66.87241 | 1798 ft | 0 kts | 252° |
| 2026-04-25 20:24 | 52.92689 | -66.87218 | 1799 ft | 4 kts | 250° |
| 2026-04-25 20:24 | 52.92692 | -66.87191 | 1798 ft | 3 kts | 297° |
| 2026-04-25 20:24 | 52.92676 | -66.87161 | 1797 ft | 4 kts | 339° |
| 2026-04-25 20:24 | 52.92651 | -66.87151 | 1799 ft | 3 kts | 340° |
| 2026-04-25 20:25 | 52.92648 | -66.87149 | 1798 ft | 1 kts | 338° |
| 2026-04-25 20:26 | 52.92649 | -66.87149 | 1798 ft | 0 kts | 343° |
| 2026-04-25 20:26 | 52.92652 | -66.87144 | 1799 ft | 2 kts | 38° |
| 2026-04-25 20:27 | 52.92666 | -66.87087 | 1801 ft | 7 kts | 88° |
| 2026-04-25 20:27 | 52.92669 | -66.86984 | 1802 ft | 10 kts | 85° |
| 2026-04-25 20:27 | 52.92672 | -66.86908 | 1802 ft | 0 kts | 114° |
| 2026-04-25 20:27 | 52.92659 | -66.86891 | 1799 ft | 7 kts | 146° |
| 2026-04-25 20:28 | 52.92592 | -66.86844 | 1802 ft | 12 kts | 160° |
| 2026-04-25 20:28 | 52.92502 | -66.86791 | 1800 ft | 15 kts | 160° |
| 2026-04-25 20:28 | 52.92396 | -66.86728 | 1802 ft | 18 kts | 160° |
| 2026-04-25 20:28 | 52.92273 | -66.86655 | 1804 ft | 20 kts | 160° |
| 2026-04-25 20:29 | 52.92136 | -66.86574 | 1803 ft | 22 kts | 160° |
| 2026-04-25 20:29 | 52.91985 | -66.86484 | 1807 ft | 24 kts | 160° |
| 2026-04-25 20:29 | 52.91821 | -66.86387 | 1808 ft | 26 kts | 160° |
| 2026-04-25 20:29 | 52.91646 | -66.86289 | 1811 ft | 28 kts | 161° |
| 2026-04-25 20:30 | 52.91486 | -66.86180 | 1813 ft | 7 kts | 122° |
| 2026-04-25 20:30 | 52.91488 | -66.86093 | 1813 ft | 9 kts | 73° |
| 2026-04-25 20:30 | 52.91530 | -66.86022 | 1813 ft | 6 kts | 357° |
| 2026-04-25 20:30 | 52.91587 | -66.86062 | 1813 ft | 30 kts | 336° |
| 2026-04-25 20:31 | 52.92109 | -66.86372 | 1806 ft | 123 kts | 340° |
| 2026-04-25 20:31 | 52.93104 | -66.86957 | 2065 ft | 169 kts | 341° |
| 2026-04-25 20:31 | 52.94227 | -66.87636 | 3124 ft | 174 kts | 343° |
| 2026-04-25 20:31 | 52.95348 | -66.88411 | 4041 ft | 183 kts | 342° |
| 2026-04-25 20:32 | 52.96606 | -66.89297 | 4561 ft | 211 kts | 342° |
| 2026-04-25 20:32 | 52.98039 | -66.90288 | 5167 ft | 235 kts | 341° |
| 2026-04-25 20:32 | 52.99646 | -66.90987 | 5935 ft | 239 kts | 2° |
| 2026-04-25 20:32 | 53.01226 | -66.90415 | 7059 ft | 233 kts | 29° |
| 2026-04-25 20:33 | 53.02442 | -66.88652 | 7992 ft | 234 kts | 56° |
| 2026-04-25 20:33 | 53.03021 | -66.86109 | 8947 ft | 242 kts | 82° |
| 2026-04-25 20:33 | 53.02828 | -66.83317 | 9904 ft | 252 kts | 108° |
| 2026-04-25 20:33 | 53.02231 | -66.81603 | 10295 ft | 269 kts | 127° |
| 2026-04-25 20:34 | 53.00071 | -66.79115 | 10964 ft | 301 kts | 146° |
| 2026-04-25 20:34 | 52.98221 | -66.77233 | 11430 ft | 322 kts | 144° |
| 2026-04-25 20:34 | 52.96259 | -66.75207 | 11984 ft | 339 kts | 145° |
| 2026-04-25 20:34 | 52.94217 | -66.73114 | 12698 ft | 349 kts | 145° |
| 2026-04-25 20:35 | 52.92128 | -66.71009 | 13673 ft | 353 kts | 146° |
| 2026-04-25 20:35 | 52.90009 | -66.68893 | 14515 ft | 359 kts | 146° |
| 2026-04-25 20:35 | 52.87872 | -66.66777 | 15392 ft | 363 kts | 146° |
| 2026-04-25 20:35 | 52.85690 | -66.64628 | 16293 ft | 368 kts | 146° |
| 2026-04-25 20:36 | 52.83470 | -66.62443 | 17134 ft | 373 kts | 146° |
| 2026-04-25 20:36 | 52.81218 | -66.60232 | 17987 ft | 378 kts | 147° |
| 2026-04-25 20:36 | 52.78941 | -66.57997 | 18763 ft | 383 kts | 147° |
| 2026-04-25 20:36 | 52.76633 | -66.55736 | 19519 ft | 387 kts | 147° |
| 2026-04-25 20:37 | 52.74307 | -66.53463 | 20240 ft | 391 kts | 146° |
| 2026-04-25 20:37 | 52.71953 | -66.51165 | 20955 ft | 395 kts | 146° |
| 2026-04-25 20:37 | 52.69574 | -66.48848 | 21662 ft | 399 kts | 146° |
| 2026-04-25 20:37 | 52.67176 | -66.46513 | 22346 ft | 402 kts | 146° |
| 2026-04-25 20:38 | 52.64747 | -66.44154 | 23040 ft | 406 kts | 146° |
| 2026-04-25 20:38 | 52.62333 | -66.41813 | 23715 ft | 410 kts | 146° |
| 2026-04-25 20:38 | 52.59859 | -66.39415 | 24284 ft | 414 kts | 146° |
| 2026-04-25 20:38 | 52.57371 | -66.37007 | 24869 ft | 417 kts | 146° |
| 2026-04-25 20:39 | 52.54848 | -66.34575 | 25380 ft | 421 kts | 146° |
| 2026-04-25 20:39 | 52.52314 | -66.32129 | 25947 ft | 423 kts | 146° |
| 2026-04-25 20:39 | 52.49766 | -66.29677 | 26510 ft | 426 kts | 146° |
| 2026-04-25 20:39 | 52.48072 | -66.28049 | 26869 ft | 427 kts | 146° |
| 2026-04-25 20:40 | 52.44625 | -66.24741 | 27584 ft | 431 kts | 146° |
| 2026-04-25 20:40 | 52.42028 | -66.22251 | 28099 ft | 433 kts | 146° |
| 2026-04-25 20:40 | 52.39413 | -66.19749 | 28605 ft | 436 kts | 146° |
| 2026-04-25 20:40 | 52.36787 | -66.17241 | 29117 ft | 439 kts | 146° |
| 2026-04-25 20:41 | 52.34141 | -66.14719 | 29606 ft | 441 kts | 146° |
| 2026-04-25 20:41 | 52.31512 | -66.12216 | 30082 ft | 444 kts | 146° |
| 2026-04-25 20:41 | 52.28832 | -66.09669 | 30501 ft | 447 kts | 146° |
| 2026-04-25 20:41 | 52.26132 | -66.07107 | 30815 ft | 452 kts | 145° |
| 2026-04-25 20:42 | 52.23403 | -66.04521 | 31179 ft | 454 kts | 146° |
| 2026-04-25 20:42 | 52.20659 | -66.01926 | 31541 ft | 457 kts | 145° |
| 2026-04-25 20:42 | 52.17897 | -65.99316 | 31895 ft | 461 kts | 145° |
| 2026-04-25 20:42 | 52.15120 | -65.96699 | 32322 ft | 461 kts | 145° |
| 2026-04-25 20:43 | 52.12340 | -65.94086 | 32802 ft | 461 kts | 145° |
| 2026-04-25 20:43 | 52.09564 | -65.91481 | 33303 ft | 461 kts | 145° |
| 2026-04-25 20:43 | 52.06785 | -65.88875 | 33781 ft | 460 kts | 145° |
| 2026-04-25 20:43 | 52.04008 | -65.86274 | 34256 ft | 460 kts | 145° |
| 2026-04-25 20:44 | 52.01235 | -65.83680 | 34641 ft | 460 kts | 145° |
| 2026-04-25 20:44 | 51.98454 | -65.81079 | 35026 ft | 461 kts | 145° |
| 2026-04-25 20:44 | 51.95660 | -65.78470 | 35333 ft | 464 kts | 146° |
| 2026-04-25 20:44 | 51.92855 | -65.75852 | 35676 ft | 465 kts | 146° |
| 2026-04-25 20:45 | 51.90044 | -65.73260 | 36040 ft | 466 kts | 148° |
| 2026-04-25 20:45 | 51.86983 | -65.71404 | 36401 ft | 474 kts | 164° |
| 2026-04-25 20:45 | 51.83771 | -65.70453 | 36779 ft | 476 kts | 166° |
| 2026-04-25 20:45 | 51.80511 | -65.69483 | 37096 ft | 477 kts | 166° |
| 2026-04-25 20:46 | 51.77233 | -65.68540 | 37450 ft | 477 kts | 167° |
| 2026-04-25 20:46 | 51.73959 | -65.67618 | 37798 ft | 477 kts | 167° |
| 2026-04-25 20:46 | 51.70685 | -65.66702 | 38135 ft | 478 kts | 167° |
| 2026-04-25 20:46 | 51.67385 | -65.65780 | 38230 ft | 481 kts | 167° |
| 2026-04-25 20:47 | 51.60823 | -65.63952 | 38206 ft | 481 kts | 167° |
| 2026-04-25 20:47 | 51.54198 | -65.62112 | 38180 ft | 482 kts | 167° |
| 2026-04-25 20:48 | 51.47584 | -65.60281 | 38171 ft | 482 kts | 167° |
| 2026-04-25 20:48 | 51.41001 | -65.58464 | 38169 ft | 478 kts | 167° |
| 2026-04-25 20:49 | 51.34477 | -65.56668 | 38156 ft | 479 kts | 167° |
| 2026-04-25 20:49 | 51.27894 | -65.54861 | 38153 ft | 479 kts | 167° |
| 2026-04-25 20:50 | 51.21319 | -65.53061 | 38154 ft | 479 kts | 167° |
| 2026-04-25 20:50 | 51.14740 | -65.51267 | 38148 ft | 480 kts | 168° |
| 2026-04-25 20:51 | 51.08144 | -65.49472 | 38130 ft | 482 kts | 168° |
| 2026-04-25 20:51 | 51.01533 | -65.47678 | 38131 ft | 482 kts | 168° |
| 2026-04-25 20:52 | 50.96042 | -65.46192 | 38129 ft | 482 kts | 168° |
| 2026-04-25 20:52 | 50.88300 | -65.44103 | 38124 ft | 482 kts | 168° |
| 2026-04-25 20:53 | 50.81727 | -65.42336 | 38113 ft | 482 kts | 168° |
| 2026-04-25 20:53 | 50.75109 | -65.40561 | 38106 ft | 482 kts | 168° |
| 2026-04-25 20:54 | 50.68493 | -65.38791 | 38103 ft | 482 kts | 168° |
| 2026-04-25 20:54 | 50.61869 | -65.37025 | 38094 ft | 482 kts | 168° |
| 2026-04-25 20:55 | 50.55286 | -65.35274 | 38086 ft | 483 kts | 168° |
| 2026-04-25 20:55 | 50.48654 | -65.33516 | 38078 ft | 483 kts | 168° |
| 2026-04-25 20:56 | 50.42011 | -65.31759 | 38080 ft | 483 kts | 168° |
| 2026-04-25 20:56 | 50.35368 | -65.30008 | 38080 ft | 484 kts | 168° |
| 2026-04-25 20:57 | 50.28729 | -65.28263 | 38077 ft | 485 kts | 168° |
| 2026-04-25 20:57 | 50.22112 | -65.26528 | 38070 ft | 485 kts | 168° |
| 2026-04-25 20:58 | 50.15453 | -65.24787 | 38067 ft | 485 kts | 168° |
| 2026-04-25 20:58 | 50.08792 | -65.23051 | 38067 ft | 485 kts | 168° |
| 2026-04-25 20:59 | 50.02125 | -65.21318 | 38071 ft | 484 kts | 169° |
| 2026-04-25 20:59 | 49.95516 | -65.19605 | 38070 ft | 484 kts | 169° |
| 2026-04-25 21:00 | 49.91072 | -65.18456 | 38070 ft | 484 kts | 169° |
| 2026-04-25 21:01 | 49.78860 | -65.15309 | 38058 ft | 485 kts | 169° |
| 2026-04-25 21:01 | 49.72197 | -65.13598 | 38071 ft | 485 kts | 169° |
| 2026-04-25 21:02 | 49.65543 | -65.11895 | 38065 ft | 485 kts | 169° |
| 2026-04-25 21:02 | 49.58930 | -65.10207 | 38068 ft | 485 kts | 169° |
| 2026-04-25 21:03 | 49.52264 | -65.08509 | 38065 ft | 485 kts | 170° |
| 2026-04-25 21:03 | 49.46730 | -65.07104 | 38087 ft | 485 kts | 170° |
| 2026-04-25 21:04 | 49.38945 | -65.05133 | 38072 ft | 485 kts | 170° |
| 2026-04-25 21:04 | 49.33404 | -65.03734 | 38071 ft | 485 kts | 170° |
| 2026-04-25 21:05 | 49.26740 | -65.02055 | 38053 ft | 485 kts | 170° |
| 2026-04-25 21:05 | 49.20066 | -65.00379 | 38070 ft | 486 kts | 170° |
| 2026-04-25 21:06 | 49.13395 | -64.98707 | 38058 ft | 486 kts | 170° |
| 2026-04-25 21:06 | 49.06718 | -64.97039 | 38068 ft | 486 kts | 170° |
| 2026-04-25 21:07 | 49.00015 | -64.95369 | 38050 ft | 488 kts | 171° |
| 2026-04-25 21:07 | 48.93320 | -64.93705 | 38038 ft | 487 kts | 171° |
| 2026-04-25 21:08 | 48.86664 | -64.92055 | 38045 ft | 487 kts | 171° |
| 2026-04-25 21:08 | 48.79961 | -64.90399 | 38037 ft | 488 kts | 171° |
| 2026-04-25 21:09 | 48.69875 | -64.87915 | 38044 ft | 491 kts | 170° |
| 2026-04-25 21:09 | 48.63137 | -64.86261 | 38021 ft | 489 kts | 171° |
| 2026-04-25 21:10 | 48.56423 | -64.84617 | 38024 ft | 489 kts | 171° |
| 2026-04-25 21:10 | 48.49695 | -64.82974 | 38010 ft | 491 kts | 170° |
| 2026-04-25 21:11 | 48.42971 | -64.81337 | 38019 ft | 492 kts | 170° |
| 2026-04-25 21:11 | 48.36209 | -64.79695 | 38018 ft | 492 kts | 170° |
| 2026-04-25 21:12 | 48.29438 | -64.78055 | 38012 ft | 492 kts | 170° |
| 2026-04-25 21:12 | 48.23818 | -64.76697 | 38021 ft | 492 kts | 171° |
| 2026-04-25 21:13 | 48.15899 | -64.74789 | 38010 ft | 492 kts | 171° |
| 2026-04-25 21:13 | 48.09174 | -64.73173 | 38012 ft | 492 kts | 171° |
| 2026-04-25 21:14 | 48.02402 | -64.71551 | 38007 ft | 492 kts | 170° |
| 2026-04-25 21:14 | 47.95614 | -64.69929 | 38013 ft | 493 kts | 170° |
| 2026-04-25 21:15 | 47.88834 | -64.68313 | 38015 ft | 493 kts | 170° |
| 2026-04-25 21:15 | 47.82047 | -64.66699 | 38017 ft | 494 kts | 171° |
| 2026-04-25 21:16 | 47.75254 | -64.65089 | 38008 ft | 493 kts | 171° |
| 2026-04-25 21:16 | 47.68515 | -64.63495 | 38014 ft | 492 kts | 171° |
| 2026-04-25 21:17 | 47.61746 | -64.61899 | 38013 ft | 492 kts | 171° |
| 2026-04-25 21:17 | 47.54978 | -64.60307 | 38016 ft | 492 kts | 171° |
| 2026-04-25 21:18 | 47.48220 | -64.58721 | 38031 ft | 491 kts | 171° |
| 2026-04-25 21:18 | 47.41468 | -64.57141 | 38016 ft | 491 kts | 171° |
| 2026-04-25 21:19 | 47.34752 | -64.55574 | 38014 ft | 491 kts | 172° |
| 2026-04-25 21:19 | 47.27986 | -64.53999 | 38004 ft | 491 kts | 172° |
| 2026-04-25 21:20 | 47.22370 | -64.52695 | 38016 ft | 492 kts | 172° |
| 2026-04-25 21:20 | 47.14461 | -64.50863 | 38020 ft | 492 kts | 172° |
| 2026-04-25 21:21 | 47.07703 | -64.49301 | 38029 ft | 492 kts | 172° |
| 2026-04-25 21:21 | 47.00942 | -64.47744 | 38010 ft | 493 kts | 172° |
| 2026-04-25 21:22 | 46.94157 | -64.46184 | 38018 ft | 493 kts | 172° |
| 2026-04-25 21:22 | 46.87424 | -64.44641 | 38017 ft | 493 kts | 172° |
| 2026-04-25 21:23 | 46.80628 | -64.43087 | 37998 ft | 493 kts | 172° |
| 2026-04-25 21:23 | 46.73843 | -64.41540 | 38027 ft | 494 kts | 172° |
| 2026-04-25 21:24 | 46.67048 | -64.39994 | 38034 ft | 494 kts | 172° |
| 2026-04-25 21:24 | 46.60255 | -64.38453 | 38019 ft | 494 kts | 172° |
| 2026-04-25 21:25 | 46.53506 | -64.36925 | 38021 ft | 493 kts | 172° |
| 2026-04-25 21:25 | 46.46719 | -64.35393 | 38023 ft | 493 kts | 172° |
| 2026-04-25 21:26 | 46.39934 | -64.33865 | 38021 ft | 493 kts | 172° |
| 2026-04-25 21:26 | 46.33149 | -64.32341 | 37889 ft | 488 kts | 173° |
| 2026-04-25 21:27 | 46.29804 | -64.31591 | 36942 ft | 490 kts | 173° |
| 2026-04-25 21:27 | 46.26396 | -64.30828 | 35861 ft | 498 kts | 173° |
| 2026-04-25 21:27 | 46.22998 | -64.30068 | 35259 ft | 493 kts | 173° |
| 2026-04-25 21:27 | 46.19589 | -64.29307 | 34191 ft | 500 kts | 173° |
| 2026-04-25 21:28 | 46.16172 | -64.28544 | 33496 ft | 495 kts | 172° |
| 2026-04-25 21:28 | 46.12754 | -64.27781 | 32331 ft | 499 kts | 172° |
| 2026-04-25 21:28 | 46.09338 | -64.27021 | 31545 ft | 494 kts | 172° |
| 2026-04-25 21:28 | 46.05927 | -64.26262 | 30543 ft | 495 kts | 172° |
| 2026-04-25 21:29 | 46.02529 | -64.25509 | 29237 ft | 498 kts | 172° |
| 2026-04-25 21:29 | 45.99127 | -64.24756 | 28137 ft | 492 kts | 172° |
| 2026-04-25 21:29 | 45.95754 | -64.24010 | 26656 ft | 487 kts | 172° |
| 2026-04-25 21:29 | 45.92408 | -64.23270 | 25495 ft | 487 kts | 172° |
| 2026-04-25 21:30 | 45.89074 | -64.22253 | 23829 ft | 494 kts | 161° |
| 2026-04-25 21:30 | 45.85930 | -64.20444 | 22134 ft | 489 kts | 159° |
| 2026-04-25 21:30 | 45.82753 | -64.18819 | 20551 ft | 481 kts | 160° |
| 2026-04-25 21:30 | 45.80626 | -64.17772 | 19540 ft | 475 kts | 160° |
| 2026-04-25 21:31 | 45.76512 | -64.15790 | 17577 ft | 465 kts | 160° |
| 2026-04-25 21:31 | 45.73465 | -64.14345 | 16050 ft | 457 kts | 160° |
| 2026-04-25 21:31 | 45.70471 | -64.12932 | 14672 ft | 450 kts | 160° |
| 2026-04-25 21:31 | 45.67600 | -64.11581 | 14556 ft | 422 kts | 160° |
| 2026-04-25 21:32 | 45.64830 | -64.10278 | 14062 ft | 416 kts | 160° |
| 2026-04-25 21:32 | 45.62086 | -64.08989 | 13372 ft | 412 kts | 160° |
| 2026-04-25 21:32 | 45.59411 | -64.07734 | 12628 ft | 408 kts | 160° |
| 2026-04-25 21:32 | 45.56730 | -64.06477 | 11913 ft | 403 kts | 160° |
| 2026-04-25 21:33 | 45.54079 | -64.05236 | 11268 ft | 397 kts | 160° |
| 2026-04-25 21:33 | 45.51482 | -64.04021 | 10766 ft | 388 kts | 160° |
| 2026-04-25 21:33 | 45.48952 | -64.02839 | 10332 ft | 378 kts | 160° |
| 2026-04-25 21:33 | 45.46490 | -64.01690 | 9957 ft | 367 kts | 160° |
| 2026-04-25 21:34 | 45.44093 | -64.00572 | 9621 ft | 356 kts | 160° |
| 2026-04-25 21:34 | 45.41763 | -63.99486 | 9289 ft | 346 kts | 159° |
| 2026-04-25 21:34 | 45.39513 | -63.98438 | 9088 ft | 334 kts | 159° |
| 2026-04-25 21:34 | 45.37353 | -63.97434 | 8955 ft | 319 kts | 159° |
| 2026-04-25 21:35 | 45.35288 | -63.96474 | 8856 ft | 306 kts | 159° |
| 2026-04-25 21:35 | 45.33299 | -63.95549 | 8695 ft | 297 kts | 159° |
| 2026-04-25 21:35 | 45.31339 | -63.94638 | 8303 ft | 295 kts | 159° |
| 2026-04-25 21:35 | 45.29396 | -63.93737 | 7957 ft | 293 kts | 159° |
| 2026-04-25 21:36 | 45.27460 | -63.92840 | 7762 ft | 299 kts | 159° |
| 2026-04-25 21:36 | 45.25462 | -63.91915 | 7599 ft | 303 kts | 159° |
| 2026-04-25 21:36 | 45.23456 | -63.90986 | 7423 ft | 303 kts | 159° |
| 2026-04-25 21:36 | 45.21450 | -63.90058 | 7266 ft | 303 kts | 158° |
| 2026-04-25 21:37 | 45.19446 | -63.89133 | 7102 ft | 302 kts | 158° |
| 2026-04-25 21:37 | 45.18098 | -63.88510 | 6985 ft | 302 kts | 158° |
| 2026-04-25 21:37 | 45.15460 | -63.87292 | 6748 ft | 301 kts | 158° |
| 2026-04-25 21:37 | 45.13473 | -63.86375 | 6591 ft | 300 kts | 159° |
| 2026-04-25 21:38 | 45.11492 | -63.85462 | 6431 ft | 298 kts | 159° |
| 2026-04-25 21:38 | 45.09516 | -63.84553 | 6261 ft | 298 kts | 158° |
| 2026-04-25 21:38 | 45.07547 | -63.83648 | 6097 ft | 297 kts | 159° |
| 2026-04-25 21:38 | 45.05580 | -63.82742 | 5935 ft | 297 kts | 158° |
| 2026-04-25 21:39 | 45.03608 | -63.81837 | 5767 ft | 298 kts | 158° |
| 2026-04-25 21:39 | 45.01637 | -63.80932 | 5578 ft | 298 kts | 158° |
| 2026-04-25 21:39 | 44.99666 | -63.80033 | 5412 ft | 297 kts | 160° |
| 2026-04-25 21:39 | 44.97631 | -63.79488 | 5235 ft | 299 kts | 171° |
| 2026-04-25 21:40 | 44.95560 | -63.79153 | 5068 ft | 300 kts | 171° |
| 2026-04-25 21:40 | 44.93496 | -63.78798 | 4897 ft | 296 kts | 171° |
| 2026-04-25 21:40 | 44.91476 | -63.78438 | 4736 ft | 289 kts | 171° |
| 2026-04-25 21:40 | 44.89490 | -63.78076 | 4428 ft | 287 kts | 171° |
| 2026-04-25 21:41 | 44.87516 | -63.77712 | 4134 ft | 285 kts | 171° |
| 2026-04-25 21:41 | 44.85553 | -63.77347 | 3867 ft | 282 kts | 171° |
| 2026-04-25 21:41 | 44.83660 | -63.76994 | 3755 ft | 273 kts | 171° |
| 2026-04-25 21:41 | 44.81810 | -63.76648 | 3678 ft | 263 kts | 171° |
| 2026-04-25 21:42 | 44.80032 | -63.76318 | 3586 ft | 254 kts | 171° |
| 2026-04-25 21:42 | 44.78307 | -63.75878 | 3279 ft | 251 kts | 155° |
| 2026-04-25 21:42 | 44.76969 | -63.74470 | 3068 ft | 234 kts | 121° |
| 2026-04-25 21:42 | 44.76005 | -63.72606 | 3049 ft | 241 kts | 118° |
| 2026-04-25 21:43 | 44.75018 | -63.70664 | 3005 ft | 246 kts | 118° |
| 2026-04-25 21:43 | 44.74081 | -63.68663 | 3072 ft | 241 kts | 106° |
| 2026-04-25 21:43 | 44.73909 | -63.66501 | 2855 ft | 211 kts | 66° |
| 2026-04-25 21:43 | 44.74623 | -63.64898 | 2615 ft | 184 kts | 35° |
| 2026-04-25 21:44 | 44.75567 | -63.63827 | 2440 ft | 171 kts | 31° |
| 2026-04-25 21:44 | 44.76487 | -63.62834 | 2262 ft | 161 kts | 30° |
| 2026-04-25 21:44 | 44.78276 | -63.60982 | 2034 ft | 159 kts | 29° |
| 2026-04-25 21:45 | 44.79150 | -63.60090 | 1876 ft | 149 kts | 27° |
| 2026-04-25 21:45 | 44.79418 | -63.59818 | 1818 ft | 143 kts | 28° |
| 2026-04-25 21:45 | 44.80609 | -63.58597 | 1763 ft | 116 kts | 26° |
| 2026-04-25 21:45 | 44.81263 | -63.57951 | 1829 ft | 116 kts | 26° |
| 2026-04-25 21:46 | 44.81920 | -63.57306 | 1654 ft | 115 kts | 26° |
| 2026-04-25 21:46 | 44.82578 | -63.56658 | 1440 ft | 116 kts | 27° |
| 2026-04-25 21:46 | 44.83242 | -63.56007 | 1246 ft | 117 kts | 27° |
| 2026-04-25 21:46 | 44.83915 | -63.55342 | 1104 ft | 118 kts | 29° |
| 2026-04-25 21:47 | 44.84588 | -63.54664 | 999 ft | 118 kts | 27° |
| 2026-04-25 21:47 | 44.85256 | -63.54010 | 821 ft | 117 kts | 28° |
| 2026-04-25 21:47 | 44.85913 | -63.53339 | 683 ft | 116 kts | 29° |
| 2026-04-25 21:47 | 44.86588 | -63.52702 | 483 ft | 116 kts | 26° |
| 2026-04-25 21:48 | 44.87200 | -63.52106 | 464 ft | 94 kts | 34° |
| 2026-04-25 21:48 | 44.87609 | -63.51694 | 467 ft | 44 kts | 35° |
| 2026-04-25 21:48 | 44.87771 | -63.51533 | 471 ft | 11 kts | 36° |
| 2026-04-25 21:48 | 44.87785 | -63.51519 | 469 ft | 3 kts | 35° |
| 2026-04-25 21:49 | 44.87822 | -63.51482 | 470 ft | 10 kts | 35° |
| 2026-04-25 21:49 | 44.87897 | -63.51410 | 466 ft | 16 kts | 34° |
| 2026-04-25 21:49 | 44.88008 | -63.51305 | 463 ft | 22 kts | 34° |
| 2026-04-25 21:49 | 44.88153 | -63.51160 | 458 ft | 28 kts | 34° |
| 2026-04-25 21:50 | 44.88303 | -63.51027 | 457 ft | 21 kts | 5° |
| 2026-04-25 21:50 | 44.88361 | -63.51106 | 455 ft | 14 kts | 302° |
| 2026-04-25 21:50 | 44.88443 | -63.51198 | 454 ft | 16 kts | 344° |
| 2026-04-25 21:50 | 44.88519 | -63.51217 | 454 ft | 18 kts | 351° |
| 2026-04-25 21:51 | 44.88648 | -63.51258 | 454 ft | 6 kts | 312° |
| 2026-04-25 21:51 | 44.88656 | -63.51287 | 454 ft | 3 kts | 277° |
| 2026-04-25 21:51 | 44.88652 | -63.51324 | 454 ft | 6 kts | 264° |
| 2026-04-25 21:51 | 44.88650 | -63.51353 | 454 ft | 2 kts | 263° |
| 2026-04-25 21:52 | 44.88650 | -63.51359 | 454 ft | 0 kts | 263° |